Time;durP1;ratioP1;P1;durP2;ratioP2;P2;SDS_P1;SDS_P2;PMS_P1;PMS_P2;Temp;Humidity;BMP_temperature;BMP_pressure;BME280_temperature;BME280_humidity;BME280_pressure;Samples;Min_cycle;Max_cycle;Signal;HPM_P1;HPM_P2
2022/11/10 00:01:09;;;;;;;10.40;8.13;;;13.30;99.90;;;;;;5009027;28;20180;-75
2022/11/10 00:03:38;;;;;;;9.03;8.03;;;13.20;99.90;;;;;;4999773;28;20192;-75
2022/11/10 00:06:08;;;;;;;8.80;7.37;;;13.20;99.90;;;;;;4992502;28;20204;-75
2022/11/10 00:08:34;;;;;;;9.50;7.43;;;13.20;99.90;;;;;;5011346;28;20704;-75
2022/11/10 00:11:06;;;;;;;8.70;7.43;;;13.20;99.90;;;;;;5008648;28;20193;-75
2022/11/10 00:16:59;;;;;;;8.73;6.40;;;13.20;99.90;;;;;;4990671;28;20193;-75
2022/11/10 00:19:14;;;;;;;7.53;6.77;;;13.20;99.90;;;;;;4993690;28;20196;-75
2022/11/10 00:21:40;;;;;;;7.97;6.97;;;13.20;99.90;;;;;;4991303;28;20200;-75
2022/11/10 00:24:07;;;;;;;11.17;7.17;;;13.20;99.90;;;;;;5007683;28;20193;-75
2022/11/10 00:26:33;;;;;;;12.47;7.30;;;13.10;99.90;;;;;;5008979;28;20200;-75
2022/11/10 00:29:00;;;;;;;9.17;7.20;;;13.10;99.90;;;;;;5009123;28;20217;-75
2022/11/10 00:31:27;;;;;;;10.17;6.90;;;13.10;99.90;;;;;;5008614;28;20239;-75
2022/11/10 00:33:54;;;;;;;8.33;6.87;;;13.10;99.90;;;;;;4987804;28;20184;-75
2022/11/10 00:36:20;;;;;;;9.33;7.07;;;13.00;99.90;;;;;;5000909;28;20263;-75
2022/11/10 00:38:50;;;;;;;10.73;7.63;;;13.00;99.90;;;;;;5007432;28;20197;-75
2022/11/10 00:41:16;;;;;;;8.07;6.80;;;13.00;99.90;;;;;;4975712;28;20197;-75
2022/11/10 00:43:43;;;;;;;8.53;6.77;;;13.00;99.90;;;;;;4992233;28;20223;-75
2022/11/10 00:46:09;;;;;;;11.00;6.90;;;13.00;99.90;;;;;;5009265;28;20626;-75
2022/11/10 00:48:36;;;;;;;7.07;6.37;;;12.90;99.90;;;;;;4987999;28;20247;-75
2022/11/10 00:51:03;;;;;;;7.70;6.73;;;12.90;99.90;;;;;;5009131;28;20896;-75
2022/11/10 00:53:30;;;;;;;9.00;7.60;;;12.80;99.90;;;;;;4991907;28;20266;-75
2022/11/10 00:55:56;;;;;;;8.57;7.23;;;12.80;99.90;;;;;;5009615;28;20807;-75
2022/11/10 00:58:22;;;;;;;9.60;7.13;;;12.80;99.90;;;;;;4974080;28;20197;-75
2022/11/10 01:00:49;;;;;;;9.50;8.07;;;12.80;99.90;;;;;;5008029;28;20189;-75
2022/11/10 01:03:17;;;;;;;9.23;7.20;;;12.90;99.90;;;;;;5006223;28;20720;-75
2022/11/10 01:05:44;;;;;;;8.53;7.63;;;12.80;99.90;;;;;;5005754;28;20299;-75
2022/11/10 01:08:10;;;;;;;9.03;7.57;;;12.80;99.90;;;;;;5009200;28;20243;-75
2022/11/10 01:10:37;;;;;;;8.83;7.73;;;12.90;99.90;;;;;;5000891;28;20259;-75
2022/11/10 01:13:04;;;;;;;9.77;8.00;;;12.90;99.90;;;;;;5008910;28;20243;-75
2022/11/10 01:15:31;;;;;;;8.53;7.63;;;13.00;99.90;;;;;;5009446;28;20211;-75
2022/11/10 01:17:57;;;;;;;8.97;7.67;;;13.00;99.90;;;;;;4990663;28;20624;-75
2022/11/10 01:20:25;;;;;;;9.97;8.00;;;13.00;99.90;;;;;;4991492;28;20646;-75
2022/11/10 01:22:52;;;;;;;8.47;7.13;;;13.00;99.90;;;;;;5007752;28;20193;-75
2022/11/10 01:25:19;;;;;;;9.93;7.87;;;13.10;99.90;;;;;;5008843;28;20256;-75
2022/11/10 01:27:46;;;;;;;9.80;7.70;;;13.10;99.90;;;;;;4981025;28;20332;-75
2022/11/10 01:30:14;;;;;;;9.70;8.33;;;13.10;99.90;;;;;;4990987;28;20311;-75
2022/11/10 01:32:40;;;;;;;9.17;8.00;;;13.10;99.90;;;;;;5002726;28;20201;-75
2022/11/10 01:35:08;;;;;;;8.97;7.67;;;13.10;99.90;;;;;;5008424;28;20276;-75
2022/11/10 01:37:35;;;;;;;8.40;7.60;;;13.10;99.90;;;;;;5003413;28;20968;-76
2022/11/10 01:40:03;;;;;;;10.90;8.00;;;13.10;99.90;;;;;;5002452;28;20220;-75
2022/11/10 01:42:55;;;;;;;10.73;7.83;;;13.10;99.90;;;;;;4987102;28;20197;-75
2022/11/10 01:45:22;;;;;;;8.73;7.83;;;13.10;99.90;;;;;;5005822;28;20192;-75
2022/11/10 01:48:00;;;;;;;10.90;7.53;;;13.00;99.90;;;;;;5011199;28;20196;-75
2022/11/10 01:50:35;;;;;;;8.23;7.37;;;13.00;99.90;;;;;;5002088;28;20199;-75
2022/11/10 01:53:07;;;;;;;9.97;7.27;;;13.00;99.90;;;;;;4969898;28;20188;-75
2022/11/10 01:55:37;;;;;;;8.47;7.20;;;13.00;99.90;;;;;;5005159;28;20189;-75
2022/11/10 01:58:05;;;;;;;10.50;8.27;;;13.00;99.90;;;;;;5010574;28;20258;-75
2022/11/10 02:00:31;;;;;;;10.07;8.37;;;13.00;99.90;;;;;;5008879;28;20184;-75
2022/11/10 02:03:39;;;;;;;8.37;7.47;;;13.00;99.90;;;;;;5007571;28;20193;-75
2022/11/10 02:06:07;;;;;;;10.10;7.77;;;13.00;99.90;;;;;;4990623;28;20201;-75
2022/11/10 02:08:35;;;;;;;8.77;7.57;;;13.00;99.90;;;;;;5002433;28;20278;-76
2022/11/10 02:11:01;;;;;;;12.63;8.00;;;13.00;99.90;;;;;;5005402;28;20880;-75
2022/11/10 02:13:30;;;;;;;10.13;8.50;;;13.00;99.90;;;;;;4993442;28;20259;-75
2022/11/10 02:15:57;;;;;;;9.43;7.80;;;13.10;99.90;;;;;;5002207;28;20659;-75
2022/11/10 02:18:23;;;;;;;10.30;7.63;;;13.20;99.90;;;;;;5003753;28;20342;-75
2022/11/10 02:20:49;;;;;;;9.67;7.93;;;13.30;99.90;;;;;;4993503;28;20200;-75
2022/11/10 02:23:33;;;;;;;10.10;8.60;;;13.30;99.90;;;;;;4988737;28;20306;-75
2022/11/10 02:26:05;;;;;;;10.10;8.03;;;13.40;99.90;;;;;;5000896;28;20204;-75
2022/11/10 02:28:37;;;;;;;8.87;7.97;;;13.50;99.90;;;;;;4995260;28;20217;-75
2022/11/10 02:31:07;;;;;;;9.57;7.53;;;13.70;99.90;;;;;;5006717;28;20203;-75
2022/11/10 02:33:33;;;;;;;9.07;7.63;;;13.80;99.90;;;;;;5007406;28;20371;-76
2022/11/10 02:36:01;;;;;;;8.57;7.67;;;13.80;99.90;;;;;;5002339;28;20990;-76
2022/11/10 02:38:28;;;;;;;7.57;6.77;;;13.90;99.90;;;;;;5004604;28;20243;-76
2022/11/10 02:40:55;;;;;;;8.87;7.20;;;14.00;99.90;;;;;;4988585;28;20884;-75
2022/11/10 02:43:22;;;;;;;8.10;7.30;;;14.10;99.90;;;;;;5006698;28;20192;-75
2022/11/10 02:45:49;;;;;;;8.53;6.90;;;14.10;99.90;;;;;;5006915;28;20220;-75
2022/11/10 02:48:15;;;;;;;8.70;7.80;;;14.10;99.90;;;;;;5007576;28;20531;-75
2022/11/10 02:50:42;;;;;;;7.67;6.83;;;14.10;99.90;;;;;;5006531;28;20204;-75
2022/11/10 02:53:09;;;;;;;8.17;7.37;;;14.10;99.90;;;;;;4982974;28;20623;-75
2022/11/10 02:55:36;;;;;;;8.93;7.00;;;14.10;99.90;;;;;;4981882;28;20181;-75
2022/11/10 02:58:03;;;;;;;8.23;7.10;;;14.00;99.90;;;;;;5008583;28;20197;-76
2022/11/10 03:00:29;;;;;;;11.47;7.83;;;14.00;99.90;;;;;;5007790;28;20192;-75
2022/11/10 03:03:04;;;;;;;7.77;6.77;;;13.90;99.90;;;;;;4969468;28;20294;-75
2022/11/10 03:05:31;;;;;;;7.80;6.90;;;13.90;99.90;;;;;;5021645;28;20207;-76
2022/11/10 03:08:01;;;;;;;7.93;6.87;;;13.80;99.90;;;;;;4990358;28;20578;-75
2022/11/10 03:10:30;;;;;;;8.20;6.90;;;13.80;99.90;;;;;;4984152;28;20212;-75
2022/11/10 03:12:59;;;;;;;9.53;7.03;;;13.70;99.90;;;;;;4970553;28;20182;-75
2022/11/10 03:15:27;;;;;;;7.63;6.73;;;13.70;99.90;;;;;;4980330;28;20196;-75
2022/11/10 03:17:54;;;;;;;9.13;7.23;;;13.60;99.90;;;;;;5005135;28;20547;-75
2022/11/10 03:20:21;;;;;;;8.40;7.50;;;13.70;99.90;;;;;;4989838;28;20197;-75
2022/11/10 03:22:47;;;;;;;9.80;8.07;;;13.60;99.90;;;;;;5009083;28;20204;-75
2022/11/10 03:25:14;;;;;;;7.93;7.13;;;13.60;99.90;;;;;;5021758;28;20650;-75
2022/11/10 03:27:41;;;;;;;8.27;7.37;;;13.60;99.90;;;;;;5005153;28;20196;-75
2022/11/10 03:30:08;;;;;;;8.47;7.33;;;13.60;99.90;;;;;;5007114;28;20299;-75
2022/11/10 03:32:34;;;;;;;7.97;7.17;;;13.60;99.90;;;;;;4988765;28;20184;-75
2022/11/10 03:35:02;;;;;;;7.90;7.10;;;13.60;99.90;;;;;;5009018;28;20217;-75
2022/11/10 03:37:28;;;;;;;10.73;7.83;;;13.60;99.90;;;;;;4990676;28;20650;-75
2022/11/10 03:39:54;;;;;;;8.27;7.37;;;13.60;99.90;;;;;;4993057;28;20196;-75
2022/11/10 03:42:22;;;;;;;8.47;7.50;;;13.60;99.90;;;;;;4991314;28;20515;-76
2022/11/10 03:44:48;;;;;;;10.33;8.00;;;13.60;99.90;;;;;;5010003;28;20201;-75
2022/11/10 03:47:15;;;;;;;9.53;7.57;;;13.60;99.90;;;;;;5009631;28;20208;-75
2022/11/10 03:49:41;;;;;;;9.07;7.77;;;13.50;99.90;;;;;;4992716;28;20205;-75
2022/11/10 03:52:08;;;;;;;8.50;7.43;;;13.50;99.90;;;;;;4991209;28;20203;-75
2022/11/10 03:54:34;;;;;;;10.33;7.77;;;13.50;99.90;;;;;;4983237;28;20873;-75
2022/11/10 03:57:00;;;;;;;8.80;7.90;;;13.50;99.90;;;;;;5012899;28;20185;-75
2022/11/10 03:59:26;;;;;;;10.37;8.27;;;13.50;99.90;;;;;;5023292;28;20208;-75
2022/11/10 04:01:53;;;;;;;9.17;7.90;;;13.50;99.90;;;;;;4978669;28;20204;-76
2022/11/10 04:09:48;;;;;;;9.60;7.47;;;13.60;99.90;;;;;;4993195;28;20216;-75
2022/11/10 04:17:50;;;;;;;10.70;7.47;;;13.70;99.90;;;;;;4988216;28;20180;-75
2022/11/10 04:20:17;;;;;;;9.30;8.13;;;13.70;99.90;;;;;;5007213;28;20189;-75
2022/11/10 04:25:27;;;;;;;8.63;7.60;;;13.70;99.90;;;;;;4993191;28;20192;-75
2022/11/10 04:27:54;;;;;;;14.47;8.73;;;13.70;99.90;;;;;;5010366;28;20654;-75
2022/11/10 04:30:20;;;;;;;10.00;8.50;;;13.70;99.90;;;;;;4990560;28;20276;-75
2022/11/10 04:32:46;;;;;;;9.27;7.53;;;13.80;99.90;;;;;;4983062;28;20276;-75
2022/11/10 04:35:14;;;;;;;8.47;6.93;;;13.80;99.90;;;;;;4991539;28;20562;-75
2022/11/10 04:37:41;;;;;;;12.23;8.43;;;13.80;99.90;;;;;;4992623;28;20200;-76
2022/11/10 04:40:08;;;;;;;7.80;7.07;;;13.80;99.90;;;;;;4972518;28;20194;-75
2022/11/10 04:42:34;;;;;;;8.23;7.10;;;13.80;99.90;;;;;;4983001;28;20197;-75
2022/11/10 04:45:01;;;;;;;8.63;7.57;;;13.90;99.90;;;;;;4994273;28;20254;-75
2022/11/10 04:47:27;;;;;;;10.17;7.67;;;13.90;99.90;;;;;;5000435;28;20192;-75
2022/11/10 04:49:53;;;;;;;10.67;7.73;;;13.90;99.90;;;;;;5008527;28;20803;-75
2022/11/10 04:52:20;;;;;;;9.20;7.63;;;13.80;99.90;;;;;;5023806;28;20571;-75
2022/11/10 04:54:46;;;;;;;9.30;7.80;;;13.80;99.90;;;;;;4991810;28;20193;-75
2022/11/10 04:57:13;;;;;;;10.27;8.30;;;13.80;99.90;;;;;;5008962;28;20214;-75
2022/11/10 04:59:40;;;;;;;9.17;8.03;;;13.80;99.90;;;;;;5009264;28;20276;-75
2022/11/10 05:02:07;;;;;;;14.47;8.33;;;13.80;99.90;;;;;;5009825;28;20197;-75
2022/11/10 05:04:34;;;;;;;9.27;7.37;;;13.80;99.90;;;;;;4990140;28;20292;-75
2022/11/10 05:07:00;;;;;;;8.77;6.93;;;13.80;99.90;;;;;;5018240;28;20193;-75
2022/11/10 05:09:26;;;;;;;8.50;7.00;;;13.80;99.90;;;;;;4988473;28;20828;-75
2022/11/10 05:11:53;;;;;;;7.47;6.40;;;13.80;99.90;;;;;;5009001;28;20723;-75
2022/11/10 05:14:20;;;;;;;8.47;6.87;;;13.80;99.90;;;;;;4991618;28;20223;-75
2022/11/10 05:16:47;;;;;;;8.20;7.40;;;13.80;99.90;;;;;;4988531;28;20208;-75
2022/11/10 05:19:14;;;;;;;8.07;7.10;;;13.80;99.90;;;;;;5011857;28;20192;-75
2022/11/10 05:21:40;;;;;;;8.33;6.93;;;13.80;99.90;;;;;;5006960;28;20212;-76
2022/11/10 05:24:07;;;;;;;9.37;7.13;;;13.80;99.90;;;;;;5009163;28;20201;-75
2022/11/10 05:26:33;;;;;;;9.63;7.00;;;13.80;99.90;;;;;;5008255;28;20195;-76
2022/11/10 05:29:00;;;;;;;8.73;7.47;;;13.80;99.90;;;;;;5012862;28;20612;-75
2022/11/10 05:31:29;;;;;;;10.33;7.00;;;13.80;99.90;;;;;;4987667;28;20201;-75
2022/11/10 05:33:57;;;;;;;8.20;6.97;;;13.80;99.90;;;;;;5017504;28;20195;-75
2022/11/10 05:36:23;;;;;;;8.43;7.30;;;13.90;99.90;;;;;;4989940;28;20569;-75
2022/11/10 05:38:50;;;;;;;8.93;6.83;;;14.00;99.90;;;;;;5020930;28;20239;-75
2022/11/10 05:41:16;;;;;;;7.67;6.87;;;14.00;99.90;;;;;;5022036;28;20204;-75
2022/11/10 05:43:42;;;;;;;7.57;6.80;;;14.00;99.90;;;;;;5008083;28;20255;-75
2022/11/10 05:46:09;;;;;;;8.37;7.57;;;14.00;99.90;;;;;;4972441;28;20276;-75
2022/11/10 05:48:35;;;;;;;9.87;7.43;;;14.10;99.90;;;;;;4989473;28;20244;-75
2022/11/10 05:51:01;;;;;;;8.00;7.20;;;14.10;99.90;;;;;;5012685;28;20201;-75
2022/11/10 05:53:28;;;;;;;8.43;7.40;;;14.10;99.90;;;;;;4989682;28;20239;-75
2022/11/10 05:55:54;;;;;;;7.67;6.87;;;14.20;99.90;;;;;;4990766;28;20192;-75
2022/11/10 05:58:20;;;;;;;8.40;7.50;;;14.20;99.90;;;;;;5008071;28;20192;-76
2022/11/10 06:00:49;;;;;;;8.33;6.90;;;14.20;99.90;;;;;;4989744;28;20201;-75
2022/11/10 06:03:19;;;;;;;7.73;6.93;;;14.30;99.90;;;;;;5008465;28;20190;-76
2022/11/10 06:05:46;;;;;;;7.83;7.13;;;14.30;99.90;;;;;;4975016;28;20303;-75
2022/11/10 06:08:13;;;;;;;7.70;6.90;;;14.30;99.90;;;;;;5009063;28;20196;-75
2022/11/10 06:10:40;;;;;;;8.03;7.23;;;14.40;99.90;;;;;;4989345;28;20213;-75
2022/11/10 06:13:07;;;;;;;7.90;7.07;;;14.40;99.90;;;;;;4989796;28;20279;-75
2022/11/10 06:15:33;;;;;;;7.53;6.73;;;14.50;99.90;;;;;;5006065;28;20197;-75
2022/11/10 06:18:00;;;;;;;9.07;7.07;;;14.50;99.90;;;;;;4989047;28;20213;-75
2022/11/10 06:20:26;;;;;;;8.37;7.50;;;14.60;99.90;;;;;;5004638;28;20632;-75
2022/11/10 06:23:08;;;;;;;8.63;7.03;;;14.60;99.90;;;;;;5018682;28;20574;-75
2022/11/10 06:25:38;;;;;;;7.53;6.83;;;14.60;99.90;;;;;;5002269;28;20215;-75
2022/11/10 06:28:08;;;;;;;8.17;6.73;;;14.60;99.90;;;;;;5002413;28;20192;-75
2022/11/10 06:30:37;;;;;;;8.00;6.53;;;14.70;99.90;;;;;;5005386;28;20220;-75
2022/11/10 06:33:04;;;;;;;7.63;6.63;;;14.70;99.90;;;;;;5003095;28;20197;-75
2022/11/10 06:35:30;;;;;;;6.87;6.17;;;14.80;99.90;;;;;;5010432;28;20188;-75
2022/11/10 06:38:03;;;;;;;7.67;6.87;;;14.80;99.90;;;;;;5000654;28;20195;-75
2022/11/10 06:40:32;;;;;;;10.43;7.03;;;14.80;99.90;;;;;;4990580;28;20225;-75
2022/11/10 06:43:00;;;;;;;8.63;6.90;;;14.80;99.90;;;;;;4985201;28;20200;-75
2022/11/10 06:45:27;;;;;;;9.87;7.30;;;14.80;99.90;;;;;;4993757;28;20216;-75
2022/11/10 06:48:11;;;;;;;8.40;6.63;;;14.90;99.90;;;;;;5022630;28;20207;-75
2022/11/10 06:50:37;;;;;;;7.90;6.90;;;14.90;99.90;;;;;;4991282;28;20307;-75
2022/11/10 06:53:05;;;;;;;13.03;6.90;;;15.00;99.90;;;;;;5007466;28;20235;-75
2022/11/10 06:55:33;;;;;;;9.30;7.03;;;15.10;99.90;;;;;;4970569;28;20658;-75
2022/11/10 06:57:59;;;;;;;7.10;6.40;;;15.10;99.90;;;;;;4971527;28;20323;-75
2022/11/10 07:00:28;;;;;;;8.83;6.93;;;15.10;99.90;;;;;;4999269;28;21162;-75
2022/11/10 07:03:07;;;;;;;10.00;7.07;;;15.10;99.90;;;;;;5010011;28;20235;-75
2022/11/10 07:05:35;;;;;;;10.87;7.70;;;15.20;99.90;;;;;;4988197;28;20204;-75
2022/11/10 07:08:15;;;;;;;9.47;7.80;;;15.30;99.90;;;;;;4985461;28;20193;-75
2022/11/10 07:10:44;;;;;;;9.57;7.63;;;15.30;99.90;;;;;;4979086;28;20201;-75
2022/11/10 07:13:12;;;;;;;8.93;7.93;;;15.40;99.90;;;;;;5002892;28;20268;-75
2022/11/10 07:15:38;;;;;;;9.60;7.30;;;15.60;99.90;;;;;;5002325;28;20181;-75
2022/11/10 07:18:13;;;;;;;10.60;7.60;;;15.60;99.90;;;;;;4995440;28;20184;-75
2022/11/10 07:20:40;;;;;;;8.87;7.20;;;15.60;99.90;;;;;;5015405;28;20189;-75
2022/11/10 07:23:07;;;;;;;10.23;8.07;;;15.60;99.90;;;;;;5012956;28;20673;-75
2022/11/10 07:25:38;;;;;;;8.47;7.20;;;15.60;99.90;;;;;;5011180;28;20181;-75
2022/11/10 07:28:09;;;;;;;11.67;7.17;;;15.70;99.90;;;;;;5017871;28;20645;-75
2022/11/10 07:30:36;;;;;;;11.83;6.63;;;15.70;99.90;;;;;;5014079;28;20818;-75
2022/11/10 07:33:05;;;;;;;7.70;6.73;;;15.70;99.90;;;;;;4991108;28;20184;-75
2022/11/10 07:35:34;;;;;;;10.50;8.03;;;15.80;99.90;;;;;;4995937;28;20238;-75
2022/11/10 07:38:04;;;;;;;8.37;6.90;;;15.80;99.90;;;;;;4989523;28;20215;-75
2022/11/10 07:40:31;;;;;;;7.30;6.60;;;15.90;99.90;;;;;;5006245;28;20201;-75
2022/11/10 07:42:58;;;;;;;9.47;7.00;;;16.00;99.90;;;;;;5008427;28;20192;-75
2022/11/10 07:45:25;;;;;;;9.10;7.30;;;16.10;99.90;;;;;;5014423;28;20201;-75
2022/11/10 07:48:04;;;;;;;11.80;7.13;;;16.20;99.90;;;;;;5006546;28;20197;-75
2022/11/10 07:50:32;;;;;;;11.67;7.27;;;16.20;99.90;;;;;;5016761;28;20190;-75
2022/11/10 07:53:14;;;;;;;7.83;7.00;;;16.40;99.90;;;;;;5005677;28;20281;-75
2022/11/10 07:55:43;;;;;;;10.50;7.37;;;16.40;99.90;;;;;;5010700;28;20295;-75
2022/11/10 07:58:13;;;;;;;9.23;7.00;;;16.40;99.90;;;;;;5005306;28;20189;-75
2022/11/10 08:00:41;;;;;;;8.67;7.33;;;16.40;99.90;;;;;;5016694;28;20203;-75
2022/11/10 08:03:15;;;;;;;10.57;7.43;;;16.30;99.90;;;;;;4996950;28;20660;-75
2022/11/10 08:05:44;;;;;;;10.67;7.67;;;16.40;99.90;;;;;;5006656;28;20204;-75
2022/11/10 08:08:11;;;;;;;11.30;9.07;;;16.40;99.90;;;;;;4999350;28;20184;-75
2022/11/10 08:10:39;;;;;;;8.90;7.83;;;16.60;99.90;;;;;;5011376;28;20256;-75
2022/11/10 08:13:10;;;;;;;8.77;7.87;;;16.70;99.90;;;;;;5009060;28;20320;-75
2022/11/10 08:15:39;;;;;;;11.83;8.70;;;16.70;99.90;;;;;;5008966;28;20185;-75
2022/11/10 08:18:27;;;;;;;9.47;8.43;;;16.70;99.90;;;;;;5009263;28;20192;-75
2022/11/10 08:20:53;;;;;;;9.83;8.17;;;16.80;99.90;;;;;;5005927;28;20247;-75
2022/11/10 08:23:19;;;;;;;8.20;7.37;;;17.10;99.90;;;;;;5009957;28;20184;-75
2022/11/10 08:25:46;;;;;;;7.90;7.10;;;17.00;99.90;;;;;;4988723;28;20184;-75
2022/11/10 08:28:16;;;;;;;10.57;7.50;;;17.00;99.90;;;;;;4996595;28;20305;-75
2022/11/10 08:30:45;;;;;;;10.17;7.97;;;17.00;99.90;;;;;;5015979;28;20192;-75
2022/11/10 08:33:14;;;;;;;7.67;6.90;;;16.90;99.90;;;;;;5006206;28;20192;-75
2022/11/10 08:35:45;;;;;;;13.50;8.43;;;17.00;99.90;;;;;;5006071;28;20192;-75
2022/11/10 08:38:21;;;;;;;12.03;7.30;;;17.00;99.90;;;;;;5011197;28;20248;-75
2022/11/10 08:40:48;;;;;;;8.10;7.23;;;17.00;99.90;;;;;;4996581;28;20812;-75
2022/11/10 08:43:17;;;;;;;7.50;6.70;;;17.00;99.90;;;;;;5022108;28;20193;-75
2022/11/10 08:45:47;;;;;;;7.87;6.60;;;17.00;99.90;;;;;;4992654;28;20189;-75
2022/11/10 08:48:18;;;;;;;6.67;6.00;;;17.10;99.90;;;;;;4995958;28;20211;-75
2022/11/10 08:50:46;;;;;;;10.37;7.27;;;17.10;99.90;;;;;;4973110;28;20192;-75
2022/11/10 08:53:16;;;;;;;11.83;7.40;;;17.00;99.90;;;;;;5006800;28;20874;-75
2022/11/10 08:55:45;;;;;;;11.87;7.57;;;16.90;99.90;;;;;;5015325;28;20295;-75
2022/11/10 08:58:22;;;;;;;8.10;7.10;;;16.90;99.90;;;;;;5009236;28;20197;-75
2022/11/10 09:00:49;;;;;;;9.13;6.90;;;16.90;99.90;;;;;;4991462;28;20188;-75
2022/11/10 09:03:22;;;;;;;7.67;6.83;;;17.00;99.90;;;;;;5010280;28;20247;-75
2022/11/10 09:05:50;;;;;;;9.03;7.10;;;16.90;99.90;;;;;;5005652;28;20623;-75
2022/11/10 09:08:17;;;;;;;8.33;6.70;;;16.90;99.90;;;;;;4984247;28;20181;-75
2022/11/10 09:10:48;;;;;;;7.77;7.00;;;16.90;99.90;;;;;;4992836;28;20189;-75
2022/11/10 09:13:16;;;;;;;9.60;6.93;;;16.90;99.90;;;;;;4992425;28;20554;-75
2022/11/10 09:15:43;;;;;;;8.50;6.70;;;17.10;99.90;;;;;;5006970;28;20259;-75
2022/11/10 09:18:13;;;;;;;9.07;6.80;;;17.30;99.90;;;;;;4998456;28;20188;-75
2022/11/10 09:20:41;;;;;;;8.80;6.53;;;17.30;99.90;;;;;;5005994;28;20185;-75
2022/11/10 09:23:15;;;;;;;8.63;6.57;;;17.30;99.90;;;;;;5002348;28;20189;-75
2022/11/10 09:25:48;;;;;;;11.23;7.33;;;17.30;99.90;;;;;;5014000;28;20250;-75
2022/11/10 09:28:19;;;;;;;10.43;7.00;;;17.20;99.90;;;;;;5016066;28;20696;-75
2022/11/10 09:30:48;;;;;;;10.80;7.80;;;17.20;99.90;;;;;;4972064;28;20220;-75
2022/11/10 09:33:15;;;;;;;7.93;6.70;;;17.10;99.90;;;;;;5009008;28;20239;-75
2022/11/10 09:35:42;;;;;;;7.53;6.63;;;17.10;99.90;;;;;;5013746;28;20220;-75
2022/11/10 09:38:08;;;;;;;9.00;7.57;;;17.10;99.90;;;;;;5007283;28;20221;-75
2022/11/10 09:41:02;;;;;;;7.53;6.70;;;17.10;99.90;;;;;;4989573;28;20189;-75
2022/11/10 09:43:48;;;;;;;8.97;6.90;;;17.00;99.90;;;;;;5007989;28;20268;-75
2022/11/10 09:46:31;;;;;;;9.50;7.43;;;17.00;99.90;;;;;;4987563;28;20801;-75
2022/11/10 09:49:19;;;;;;;7.10;6.33;;;17.00;99.90;;;;;;5004923;28;20208;-76
2022/11/10 09:51:47;;;;;;;9.63;7.07;;;17.00;99.90;;;;;;5012131;28;20185;-75
2022/11/10 09:54:38;;;;;;;10.27;7.20;;;16.90;99.90;;;;;;5008313;28;20220;-75
2022/11/10 09:57:10;;;;;;;11.23;7.40;;;16.90;99.90;;;;;;5007014;28;20181;-75
2022/11/10 09:59:36;;;;;;;11.37;7.50;;;16.90;99.90;;;;;;5012586;28;20189;-75
2022/11/10 10:02:22;;;;;;;11.40;6.90;;;16.90;99.90;;;;;;5018769;28;20195;-75
2022/11/10 10:04:49;;;;;;;10.70;6.93;;;16.90;99.90;;;;;;5015227;28;20736;-75
2022/11/10 10:07:37;;;;;;;10.73;7.20;;;17.00;99.90;;;;;;5006862;28;20307;-75
2022/11/10 10:10:52;;;;;;;7.70;6.50;;;17.10;99.90;;;;;;5005388;28;20943;-75
2022/11/10 10:13:36;;;;;;;7.67;6.80;;;17.10;99.90;;;;;;4960048;28;20241;-75
2022/11/10 10:16:06;;;;;;;7.97;6.57;;;17.40;99.90;;;;;;4983421;28;20235;-75
2022/11/10 10:18:53;;;;;;;8.57;7.23;;;17.50;99.90;;;;;;5018104;28;20955;-75
2022/11/10 10:22:17;;;;;;;8.40;6.60;;;17.60;99.90;;;;;;4971049;28;20199;-75
2022/11/10 10:24:43;;;;;;;9.23;6.33;;;17.90;99.90;;;;;;4972949;28;20197;-75
2022/11/10 10:27:25;;;;;;;6.77;6.07;;;18.30;99.90;;;;;;5004593;28;20188;-75
2022/11/10 10:29:52;;;;;;;9.90;6.30;;;18.70;99.90;;;;;;5015864;28;20220;-76
2022/11/10 10:32:21;;;;;;;7.53;5.57;;;19.80;99.90;;;;;;4986816;28;20192;-75
2022/11/10 10:34:48;;;;;;;8.33;5.97;;;20.60;99.90;;;;;;4988246;28;20196;-75
2022/11/10 10:37:35;;;;;;;8.33;6.10;;;20.30;99.90;;;;;;5003426;28;20209;-75
2022/11/10 10:40:01;;;;;;;7.70;5.83;;;20.10;99.90;;;;;;5002998;28;20738;-76
2022/11/10 10:42:36;;;;;;;7.70;6.00;;;20.00;99.90;;;;;;5006017;28;20200;-76
2022/11/10 10:45:21;;;;;;;10.50;6.20;;;20.00;99.90;;;;;;4981106;28;20191;-76
2022/11/10 10:47:52;;;;;;;7.67;5.53;;;19.90;99.90;;;;;;5000592;28;20202;-76
2022/11/10 10:50:31;;;;;;;11.00;5.80;;;19.60;99.90;;;;;;5008372;28;20238;-75
2022/11/10 10:53:20;;;;;;;7.50;6.10;;;19.30;99.90;;;;;;5007417;28;20188;-76
2022/11/10 10:56:13;;;;;;;12.93;5.77;;;19.40;99.90;;;;;;4992390;28;20563;-76
2022/11/10 10:59:01;;;;;;;8.83;6.20;;;19.80;99.90;;;;;;4985812;28;20197;-76
2022/11/10 11:01:42;;;;;;;7.47;5.80;;;20.30;99.90;;;;;;5003158;28;20188;-76
2022/11/10 11:04:30;;;;;;;8.45;5.97;;;20.40;99.90;;;;;;5005674;28;20199;-76
2022/11/10 11:07:04;;;;;;;7.17;5.87;;;20.20;99.90;;;;;;4982750;28;20213;-76
2022/11/10 11:09:43;;;;;;;7.73;5.77;;;20.10;99.90;;;;;;4989287;28;20204;-76
2022/11/10 11:12:32;;;;;;;9.50;5.87;;;20.10;99.90;;;;;;4998140;28;20590;-75
2022/11/10 11:15:28;;;;;;;6.70;5.93;;;20.00;99.90;;;;;;5003149;28;20192;-75
2022/11/10 11:18:01;;;;;;;8.23;6.17;;;19.80;99.90;;;;;;5001694;28;20272;-75
2022/11/10 11:20:47;;;;;;;9.30;6.40;;;19.80;99.90;;;;;;4984988;28;20215;-76
2022/11/10 11:23:38;;;;;;;8.87;6.90;;;19.90;99.90;;;;;;4978596;28;20593;-76
2022/11/10 11:26:38;;;;;;;10.90;6.00;;;19.90;99.90;;;;;;5010674;28;20185;-75
2022/11/10 11:29:50;;;;;;;7.67;5.87;;;20.00;99.90;;;;;;4988525;28;20724;-75
2022/11/10 11:32:57;;;;;;;10.33;6.10;;;20.10;99.90;;;;;;5006649;28;20278;-75
2022/11/10 11:35:57;;;;;;;6.47;5.80;;;20.00;99.90;;;;;;4988717;28;20185;-75
2022/11/10 11:38:57;;;;;;;6.80;5.50;;;20.10;99.90;;;;;;4971440;28;20193;-75
2022/11/10 11:41:50;;;;;;;7.50;5.73;;;20.00;99.90;;;;;;5002273;28;20327;-75
2022/11/10 11:44:57;;;;;;;7.23;6.10;;;20.10;99.90;;;;;;4985271;28;20811;-75
2022/11/10 11:47:40;;;;;;;12.73;5.80;;;20.10;99.90;;;;;;5001141;28;20201;-76
2022/11/10 11:50:41;;;;;;;7.63;5.90;;;20.10;99.90;;;;;;4991442;28;20211;-75
2022/11/10 11:53:49;;;;;;;6.73;5.43;;;20.00;99.90;;;;;;4999065;28;20189;-75
2022/11/10 11:56:39;;;;;;;6.75;5.45;;;20.00;99.90;;;;;;5006459;28;20197;-75
2022/11/10 11:59:27;;;;;;;6.57;5.57;;;20.00;99.90;;;;;;5011776;28;20192;-75
2022/11/10 12:02:32;;;;;;;7.83;5.87;;;20.00;99.90;;;;;;5016841;28;20746;-76
2022/11/10 12:05:28;;;;;;;6.87;6.10;;;19.90;99.90;;;;;;5009905;28;21075;-76
2022/11/10 12:08:55;;;;;;;11.37;6.40;;;19.90;99.90;;;;;;4997051;28;20239;-76
2022/11/10 12:11:29;;;;;;;8.67;6.00;;;19.90;99.90;;;;;;4893081;29;20196;-76
2022/11/10 12:14:32;;;;;;;8.07;6.40;;;19.90;99.90;;;;;;4903721;29;20589;-75
2022/11/10 12:17:18;;;;;;;6.60;6.00;;;19.90;99.90;;;;;;5002168;28;20217;-76
2022/11/10 12:20:04;;;;;;;7.60;5.67;;;19.90;99.90;;;;;;5001099;28;20535;-76
2022/11/10 12:23:12;;;;;;;8.20;6.00;;;19.80;99.90;;;;;;5005567;28;20206;-76
2022/11/10 12:26:00;;;;;;;9.03;6.17;;;19.80;99.90;;;;;;5008836;28;20684;-76
2022/11/10 12:28:39;;;;;;;8.80;6.60;;;19.80;99.90;;;;;;4998657;28;20202;-75
2022/11/10 12:31:20;;;;;;;9.23;5.93;;;19.80;99.90;;;;;;5008524;28;20623;-75
2022/11/10 12:33:58;;;;;;;7.27;5.90;;;19.80;99.90;;;;;;5006025;28;20188;-75
2022/11/10 12:36:29;;;;;;;9.43;6.70;;;19.70;99.90;;;;;;5006478;28;20247;-76
2022/11/10 12:39:20;;;;;;;7.40;6.10;;;19.70;99.90;;;;;;4983324;28;20339;-75
2022/11/10 12:41:54;;;;;;;8.10;6.17;;;19.60;99.90;;;;;;5001444;28;20192;-75
2022/11/10 12:44:37;;;;;;;7.53;6.53;;;19.60;99.90;;;;;;5004783;28;20211;-75
2022/11/10 12:47:12;;;;;;;7.03;6.33;;;19.50;99.90;;;;;;5001123;28;20192;-75
2022/11/10 12:50:09;;;;;;;7.03;6.30;;;19.60;99.90;;;;;;5014790;28;20271;-75
2022/11/10 12:53:05;;;;;;;6.93;6.20;;;19.60;99.90;;;;;;5006683;28;20311;-75
2022/11/10 12:55:58;;;;;;;8.40;6.20;;;19.50;99.90;;;;;;4993023;28;20192;-75
2022/11/10 12:58:25;;;;;;;7.93;5.87;;;19.50;99.90;;;;;;5008259;28;20187;-75
2022/11/10 13:01:12;;;;;;;7.33;5.83;;;19.40;99.90;;;;;;5015075;28;20189;-75
2022/11/10 13:03:53;;;;;;;9.63;6.00;;;19.40;99.90;;;;;;4991132;28;20199;-75
2022/11/10 13:06:35;;;;;;;11.27;6.07;;;19.30;99.90;;;;;;5009606;28;20188;-76
2022/11/10 13:09:02;;;;;;;7.60;5.80;;;19.30;99.90;;;;;;5003814;28;20209;-75
2022/11/10 13:11:34;;;;;;;11.17;5.83;;;19.30;99.90;;;;;;5005210;28;20224;-76
2022/11/10 13:14:28;;;;;;;6.40;5.80;;;19.30;99.90;;;;;;5006223;28;21044;-75
2022/11/10 13:16:55;;;;;;;7.87;6.27;;;19.30;99.90;;;;;;5006642;28;20193;-75
2022/11/10 13:19:32;;;;;;;6.87;6.13;;;19.20;99.90;;;;;;4999319;28;20682;-76
2022/11/10 13:22:05;;;;;;;7.33;5.97;;;19.20;99.90;;;;;;5002594;28;20613;-76
2022/11/10 13:24:38;;;;;;;11.00;6.33;;;19.10;99.90;;;;;;5018808;28;20235;-75
2022/11/10 13:27:42;;;;;;;8.60;6.13;;;19.00;99.90;;;;;;5008714;28;20215;-75
2022/11/10 13:30:09;;;;;;;8.47;6.50;;;19.00;99.90;;;;;;5009782;28;20303;-75
2022/11/10 13:32:36;;;;;;;7.53;6.50;;;19.00;99.90;;;;;;5005611;28;20188;-75